Boyd Deep Canyon Reserve, California Weather observations

Data are for 10 minute period ending at time listed.
 Day   Time   Solar   Ave.   Ave.  Ave.  Vector  Max.   Baro.   Total    
  of    of     Rad.   Air    Rel.  Wind   Wind   Wind  Press.  Precip.   
Year   Day            Temp.  Hum.  Speed  Dir.   Gust                    
2014   (PST)  Kw/m2    F      %     mph   deg.    mph    mb.     in.     
-------------------------------------------------------------------------
 294    4:10   0.00   70.3    53    3.1    56     6.2   974.6    0.00 
 294    4:20   0.00   70.4    52    1.7    68     3.4   974.8    0.00 
 294    4:30   0.00   69.7    53    1.2   159     2.9   974.8    0.00 
 294    4:40   0.00   69.6    52    0.3   186     1.9   974.9    0.00 
 294    4:50   0.00   68.9    53    1.1   260     3.0   974.9    0.00 
 294    5:00   0.00   68.7    53    2.6   225     9.6   974.8    0.00 
 294    5:10   0.00   75.2    27    6.9   173    11.7   974.9    0.00 
 294    5:20   0.00   73.6    40    3.7    57     7.7   975.1    0.00 
 294    5:30   0.00   70.8    43    2.8    22     8.5   975.1    0.00 
 294    5:40   0.00   71.8    40    3.2    78     8.6   975.0    0.00 
 294    5:50   0.00   71.6    39    1.9    21     3.6   975.0    0.00 
 294    6:00   0.00   71.3    41    4.2    59     6.4   975.4    0.00 
 294    6:10   0.00   70.3    48    2.4    76     5.8   975.6    0.00 
 294    6:20   0.01   69.8    49    1.1   259     2.6   975.6    0.00 
 294    6:30   0.02   69.5    50    1.4   226     2.3   975.6    0.00 
 294    6:40   0.08   70.9    47    1.6   160     4.7   975.7    0.00 
 294    6:50   0.11   71.1    45    2.5   190     3.7   975.9    0.00 
 294    7:00   0.14   72.0    43    2.9   203     3.8   976.0    0.00 
 294    7:10   0.17   73.1    39    3.9   212     5.4   976.1    0.00 
 294    7:20   0.21   74.3    37    1.6    84     3.9   976.1    0.00 
 294    7:30   0.25   76.0    33    1.2   347     3.6   976.1    0.00 
 294    7:40   0.28   78.8    30    0.3   145     2.0   976.2    0.00 
 294    7:50   0.31   77.9    30    2.2   202     3.6   976.2    0.00 
 294    8:00   0.35   78.3    29    1.8   190     3.9   976.1    0.00 
 294    8:10   0.38   79.8    28    1.4   174     2.4   976.0    0.00 
 294    8:20   0.41   80.4    26    2.1   220     3.6   975.9    0.00 
 294    8:30   0.44   81.1    25    1.8   171     2.7   975.8    0.00 
 294    8:40   0.47   83.1    24    1.1   160     2.9   975.7    0.00 
 294    8:50   0.50   81.8    28    4.5     5     8.6   975.6    0.00 
 294    9:00   0.53   80.0    31    5.8   356     7.6   975.6    0.00 
 294    9:10   0.55   80.9    29    5.5     4     7.7   975.6    0.00 
 294    9:20   0.58   81.7    28    4.6   345     6.6   975.6    0.00 
 294    9:30   0.60   81.6    28    4.5   330     6.9   975.6    0.00 
 294    9:40   0.62   83.0    27    2.3   336     5.3   975.6    0.00 
 294    9:50   0.64   83.8    26    3.2    56     7.3   975.5    0.00 
 294   10:00   0.66   83.9    25    6.2    60    10.4   975.5    0.00 
 294   10:10   0.68   84.1    25    6.4    56    10.6   975.4    0.00 
 294   10:20   0.70   84.6    24    6.0    55     9.1   975.2    0.00 
 294   10:30   0.71   84.8    22    5.9    71    10.2   975.2    0.00 
 294   10:40   0.72   84.7    22    6.0    78     9.2   975.1    0.00 
 294   10:50   0.73   85.4    21    4.4    86     8.8   975.1    0.00 
 294   11:00   0.74   85.6    22    4.8    61     9.4   975.0    0.00 
 294   11:10   0.74   85.6    21    5.9    63    10.5   974.9    0.00 
 294   11:20   0.74   86.4    21    3.8    71     9.6   974.8    0.00 
 294   11:30   0.75   86.3    21    3.1    91     6.8   974.8    0.00 
 294   11:40   0.75   86.0    21    4.7    92     9.0   974.7    0.00 
 294   11:50   0.74   86.0    20    4.7    65     9.4   974.5    0.00 
 294   12:00   0.74   86.5    20    5.1    74    10.7   974.4    0.00 
 294   12:10   0.72   86.3    20    5.2    82     9.1   974.2    0.00 
 294   12:20   0.73   86.9    20    3.1    74     6.1   974.2    0.00 
 294   12:30   0.72   86.7    20    5.3    65     9.9   974.1    0.00 
 294   12:40   0.71   86.8    20    5.0    83     9.6   974.0    0.00 
 294   12:50   0.70   86.7    20    3.8    62     7.7   973.9    0.00 
 294   13:00   0.68   87.4    19    5.8    38    14.0   973.9    0.00 
 294   13:10   0.67   88.0    18    5.1    35     8.1   973.8    0.00 
 294   13:20   0.65   87.7    19    4.8    40     8.3   973.7    0.00 
 294   13:30   0.63   88.0    18    4.8   346     8.8   973.5    0.00 
 294   13:40   0.61   88.0    18    6.1   344    10.3   973.5    0.00 
 294   13:50   0.58   88.3    18    4.8   348     9.9   973.4    0.00 
 294   14:00   0.56   88.3    18    5.5   357     9.8   973.4    0.00 
 294   14:10   0.54   88.4    18    6.4   352     9.8   973.3    0.00 
 294   14:20   0.51   88.1    18    4.8   341     8.8   973.3    0.00 
 294   14:30   0.48   88.5    18    5.7   342    10.7   973.2    0.00 
 294   14:40   0.45   88.9    17    5.8     5     9.8   973.1    0.00 
 294   14:50   0.42   88.6    17    3.4   327     6.3   973.0    0.00 
 294   15:00   0.40   88.8    17    3.7     7     6.5   972.9    0.00 
 294   15:10   0.37   88.6    17    3.6   340     6.6   972.8    0.00 
 294   15:20   0.35   89.0    16    3.1   326     6.1   972.8    0.00 
 294   15:30   0.30   89.6    16    1.9   240     4.2   972.7    0.00 
 294   15:40   0.24   89.3    16    2.3   350     6.5   972.6    0.00 
 294   15:50   0.18   88.4    16    3.4   354     7.7   972.6    0.00 
 294   16:00   0.03   87.5    16    3.0     2     5.2   972.5    0.00 
 294   16:10   0.03   86.9    17    2.5   356     4.3   972.4    0.00 
 294   16:20   0.04   86.6    18    3.5    30     8.0   972.2    0.00 
 294   16:30   0.04   86.2    19    2.2    74     3.5   972.2    0.00 
 294   16:40   0.03   86.0    19    2.1    84     3.2   972.3    0.00 
 294   16:50   0.03   85.8    18    2.8    12     5.0   972.3    0.00 
 294   17:00   0.02   85.1    18    2.3    42     3.5   972.5    0.00 
 294   17:10   0.00   84.9    18    2.1   344     3.6   972.7    0.00 
 294   17:20   0.00   85.0    18    0.9   314     4.2   972.8    0.00 
 294   17:30   0.00   84.6    18    3.3   216     6.3   972.9    0.00 
 294   17:40   0.00   84.6    15    7.8   181    13.5   972.9    0.00 
 294   17:50   0.00   84.3    15   10.1   177    14.4   973.0    0.00 
 294   18:00   0.00   83.7    16    9.8   172    14.6   973.1    0.00 
 294   18:10   0.00   83.1    18   11.2   175    15.8   973.2    0.00 
 294   18:20   0.00   82.6    19   12.4   174    16.6   973.3    0.00 
 294   18:30   0.00   82.1    21   12.4   175    19.6   973.4    0.00 
 294   18:40   0.00   81.7    22   12.6   173    20.2   973.4    0.00 
 294   18:50   0.00   81.2    22    8.6   178    15.3   973.5    0.00 
 294   19:00   0.00   81.4    20   13.4   174    20.9   973.4    0.00 
 294   19:10   0.00   81.4    20   13.8   175    22.2   973.6    0.00 
 294   19:20   0.00   81.2    19    9.3   183    14.0   973.8    0.00 
 294   19:30   0.00   80.9    19    9.0   181    17.6   973.9    0.00 
 294   19:40   0.00   80.7    20   13.5   176    21.6   973.9    0.00 
 294   19:50   0.00   80.6    19   12.9   177    21.6   974.1    0.00 
 294   20:00   0.00   80.5    19   11.4   176    18.1   974.2    0.00 
 294   20:10   0.00   80.5    18   10.2   177    15.4   974.4    0.00 
 294   20:20   0.00   80.3    18    9.5   176    14.7   974.5    0.00 
 294   20:30   0.00   80.5    16   12.3   172    17.7   974.5    0.00 
 294   20:40   0.00   80.4    15    9.0   180    13.2   974.6    0.00 
 294   20:50   0.00   80.4    14   10.4   180    16.2   974.8    0.00 
 294   21:00   0.00   80.3    13    8.9   188    17.1   974.9    0.00 
 294   21:10   0.00   79.6    14    6.9   236    12.8   975.0    0.00 
 294   21:20   0.00   79.3    13    5.3   219     8.8   975.0    0.00 
 294   21:30   0.00   79.1    13    5.2   226     8.0   975.1    0.00 
 294   21:40   0.00   78.6    16    4.1   179     8.8   975.1    0.00 
 294   21:50   0.00   77.8    18    2.3   106     4.0   975.1    0.00 
 294   22:00   0.00   78.3    12    3.1   184     8.0   975.1    0.00 
 294   22:10   0.00   78.1    10    3.5   197     9.8   975.1    0.00 
 294   22:20   0.00   78.9     8    4.8   202     9.0   975.1    0.00 
 294   22:30   0.00   78.9     8    5.4   192    11.0   975.0    0.00 
 294   22:40   0.00   78.6     8    4.7   196    10.2   975.0    0.00 
 294   22:50   0.00   78.5     8    5.7   205     9.6   975.1    0.00 
 294   23:00   0.00   78.0     8    6.1   211     9.6   975.0    0.00 
 294   23:10   0.00   77.7     8    4.7   202     9.3   975.1    0.00 
 294   23:20   0.00   77.5     8    6.3   214    11.8   975.1    0.00 
 294   23:30   0.00   77.6     8    6.1   204    12.5   975.1    0.00 
 294   23:40   0.00   77.6     7    7.3   218    12.2   975.2    0.00 
 294   23:50   0.00   77.6     8    6.6   210    10.7   975.3    0.00 
 295    0:00   0.00   74.3    22    2.8    65     4.5   975.4    0.00 
 295    0:10   0.00   73.1    28    2.2    51     3.6   975.4    0.00 
 295    0:20   0.00   72.1    28    0.9    38     2.3   975.5    0.00 
 295    0:30   0.00   74.8    11    7.6   211    11.6   975.5    0.00 
 295    0:40   0.00   76.7     9    9.3   214    14.8   975.5    0.00 
 295    0:50   0.00   76.5     9    9.3   219    12.8   975.5    0.00 
 295    1:00   0.00   76.4     9   10.0   217    15.2   975.5    0.00 
 295    1:10   0.00   76.2     9    8.6   213    13.6   975.4    0.00 
 295    1:20   0.00   76.2     9    8.9   211    14.6   975.4    0.00 
 295    1:30   0.00   76.1     9    8.3   210    13.4   975.5    0.00 
 295    1:40   0.00   76.2     9    7.8   200    12.8   975.3    0.00 
 295    1:50   0.00   76.3     9    9.1   198    16.4   975.1    0.00 
 295    2:00   0.00   76.2     9    8.2   201    13.4   975.1    0.00 
 295    2:10   0.00   76.2     8    7.5   202    10.8   975.2    0.00 
 295    2:20   0.00   76.4     8    8.5   206    12.6   975.1    0.00 
 295    2:30   0.00   75.2    15    3.4   147    10.7   975.2    0.00 
 295    2:40   0.00   71.3    28    4.2    59     5.8   975.2    0.00 
 295    2:50   0.00   70.9    26    3.9    78     5.8   975.2    0.00 
 295    3:00   0.00   71.2    27    1.3    60     3.6   975.2    0.00 
 295    3:10   0.00   71.3    22    3.4   204    12.4   975.2    0.00 
 295    3:20   0.00   75.1    10    7.3   200    12.9   975.2    0.00 
 295    3:30   0.00   75.3    10    9.2   208    14.5   975.2    0.00 
 295    3:40   0.00   75.4    10    9.0   213    14.3   975.3    0.00 
 295    3:50   0.00   75.6    10    9.1   210    14.5   975.5    0.00 
 295    4:00   0.00   75.5    10   10.3   212    15.3   975.8    0.00 

Return to Boyd Deep Canyon Reserve graphs page.


Western Regional Climate Center,wrcc@dri.edu